createdAt,value
2019-02-03T00:01:44.335Z,4.00
2019-02-03T00:04:13.406Z,3.80
2019-02-03T00:06:41.731Z,3.80
2019-02-03T00:09:20.032Z,3.80
2019-02-03T00:11:49.902Z,3.70
2019-02-03T00:14:19.182Z,3.80
2019-02-03T00:16:55.246Z,3.70
2019-02-03T00:19:28.668Z,3.70
2019-02-03T00:21:59.239Z,3.80
2019-02-03T00:24:28.197Z,3.80
2019-02-03T00:26:56.883Z,3.80
2019-02-03T00:29:24.428Z,3.70
2019-02-03T00:31:53.661Z,3.70
2019-02-03T00:34:26.817Z,3.70
2019-02-03T00:36:55.202Z,3.70
2019-02-03T00:39:22.652Z,3.80
2019-02-03T00:41:52.566Z,3.80
2019-02-03T00:44:21.035Z,3.70
2019-02-03T00:46:48.698Z,3.70
2019-02-03T00:49:17.103Z,3.70
2019-02-03T00:51:48.495Z,3.80
2019-02-03T00:54:16.951Z,3.70
2019-02-03T00:56:47.411Z,3.70
2019-02-03T00:59:15.212Z,3.70
2019-02-03T01:01:43.969Z,3.70
2019-02-03T01:04:34.754Z,3.60
2019-02-03T01:07:04.314Z,3.70
2019-02-03T01:09:33.742Z,3.70
2019-02-03T01:12:01.730Z,3.60
2019-02-03T01:14:30.163Z,3.60
2019-02-03T01:16:57.485Z,3.60
2019-02-03T01:19:25.442Z,3.70
2019-02-03T01:21:56.222Z,3.70
2019-02-03T01:24:25.326Z,3.60
2019-02-03T01:26:53.688Z,3.60
2019-02-03T01:29:21.043Z,3.50
2019-02-03T01:31:49.391Z,3.50
2019-02-03T01:34:17.315Z,3.50
2019-02-03T01:36:45.395Z,3.60
2019-02-03T01:39:12.711Z,3.50
2019-02-03T01:41:39.987Z,3.60
2019-02-03T01:44:07.262Z,3.50
2019-02-03T01:46:34.598Z,3.50
2019-02-03T01:49:02.174Z,3.50
2019-02-03T01:51:29.814Z,3.50
2019-02-03T01:53:57.055Z,3.40
2019-02-03T01:56:24.316Z,3.40
2019-02-03T01:58:51.572Z,3.50
2019-02-03T02:01:18.898Z,3.50
2019-02-03T02:03:46.190Z,3.50
2019-02-03T02:06:13.552Z,3.40
2019-02-03T02:08:41.097Z,3.40
2019-02-03T02:11:08.330Z,3.40
2019-02-03T02:13:35.675Z,3.50
2019-02-03T02:16:03.026Z,3.40
2019-02-03T02:18:30.355Z,3.50
2019-02-03T02:20:57.603Z,3.40
2019-02-03T02:23:24.869Z,3.50
2019-02-03T02:25:52.583Z,3.50
2019-02-03T02:28:19.950Z,3.50
2019-02-03T02:30:47.307Z,3.50
2019-02-03T02:33:14.529Z,3.40
2019-02-03T02:35:41.868Z,3.60
2019-02-03T02:38:09.562Z,3.60
2019-02-03T02:40:40.330Z,3.60
2019-02-03T02:43:07.619Z,3.60
2019-02-03T02:45:34.985Z,3.40
2019-02-03T02:48:02.264Z,3.60
2019-02-03T02:50:38.354Z,3.50
2019-02-03T02:53:05.715Z,3.60
2019-02-03T02:55:33.067Z,3.60
2019-02-03T02:58:00.312Z,3.60
2019-02-03T03:00:27.666Z,3.50
2019-02-03T03:02:55.306Z,3.50
2019-02-03T03:05:22.578Z,3.50
2019-02-03T03:07:49.914Z,3.50
2019-02-03T03:10:17.988Z,3.60
2019-02-03T03:12:45.943Z,3.60
2019-02-03T03:15:14.192Z,3.60
2019-02-03T03:17:41.432Z,3.60
2019-02-03T03:20:09.735Z,3.60
2019-02-03T03:22:37.081Z,3.60
2019-02-03T03:25:05.053Z,3.60
2019-02-03T03:27:32.391Z,3.50
2019-02-03T03:29:59.667Z,3.50
2019-02-03T03:32:27.038Z,3.60
2019-02-03T03:34:54.356Z,3.60
2019-02-03T03:37:21.709Z,3.60
2019-02-03T03:39:48.951Z,3.60
2019-02-03T03:42:16.582Z,3.70
2019-02-03T03:44:43.948Z,3.60
2019-02-03T03:47:11.214Z,3.70
2019-02-03T03:49:38.551Z,3.60
2019-02-03T03:52:05.799Z,3.60
2019-02-03T03:54:33.166Z,3.50
2019-02-03T03:57:00.521Z,3.70
2019-02-03T03:59:27.748Z,3.50
2019-02-03T04:01:55.007Z,3.70
2019-02-03T04:04:22.257Z,3.60
2019-02-03T04:06:49.604Z,3.50
2019-02-03T04:09:16.976Z,3.50
2019-02-03T04:11:44.330Z,3.60
2019-02-03T04:14:12.047Z,3.70
2019-02-03T04:16:39.327Z,3.60
2019-02-03T04:19:06.660Z,3.70
2019-02-03T04:21:33.916Z,3.60
2019-02-03T04:24:01.270Z,3.60
2019-02-03T04:26:28.591Z,3.50
2019-02-03T04:28:55.946Z,3.40
2019-02-03T04:31:23.623Z,3.60
2019-02-03T04:33:50.848Z,3.50
2019-02-03T04:36:18.150Z,3.60
2019-02-03T04:38:57.193Z,3.50
2019-02-03T04:41:14.592Z,3.60
2019-02-03T04:43:41.858Z,3.50
2019-02-03T04:46:09.708Z,3.60
2019-02-03T04:48:36.949Z,3.60
2019-02-03T04:51:04.296Z,3.70
2019-02-03T04:53:31.753Z,3.50
2019-02-03T04:55:59.075Z,3.70
2019-02-03T04:58:26.344Z,3.70
2019-02-03T05:00:53.700Z,3.50
2019-02-03T05:03:21.256Z,3.50
2019-02-03T05:05:48.499Z,3.70
2019-02-03T05:08:15.845Z,3.60
2019-02-03T05:10:43.100Z,3.50
2019-02-03T05:13:10.443Z,3.60
2019-02-03T05:15:37.675Z,3.50
2019-02-03T05:18:04.911Z,3.40
2019-02-03T05:20:32.155Z,3.40
2019-02-03T05:22:59.414Z,3.60
2019-02-03T05:25:26.759Z,3.60
2019-02-03T05:27:54.056Z,3.40
2019-02-03T05:30:29.618Z,3.40
2019-02-03T05:32:56.972Z,3.40
2019-02-03T05:35:24.541Z,3.30
2019-02-03T05:37:51.881Z,3.40
2019-02-03T05:40:19.223Z,3.30
2019-02-03T05:42:46.578Z,3.40
2019-02-03T05:45:15.779Z,3.40
2019-02-03T05:47:43.023Z,3.40
2019-02-03T05:50:11.614Z,3.50
2019-02-03T05:52:38.847Z,3.50
2019-02-03T05:55:06.379Z,3.40
2019-02-03T05:57:33.624Z,3.40
2019-02-03T06:00:00.865Z,3.40
2019-02-03T06:02:28.126Z,3.30
2019-02-03T06:04:55.852Z,3.40
2019-02-03T06:07:23.564Z,3.40
2019-02-03T06:09:51.248Z,3.20
2019-02-03T06:12:18.968Z,3.30
2019-02-03T06:14:46.655Z,3.30
2019-02-03T06:17:14.406Z,3.20
2019-02-03T06:19:42.076Z,3.30
2019-02-03T06:22:09.479Z,3.20
2019-02-03T06:24:36.723Z,3.20
2019-02-03T06:27:04.080Z,3.10
2019-02-03T06:29:31.416Z,3.10
2019-02-03T06:31:58.664Z,3.10
2019-02-03T06:34:25.932Z,3.10
2019-02-03T06:36:53.724Z,3.00
2019-02-03T06:39:21.049Z,2.90
2019-02-03T06:41:48.315Z,2.90
2019-02-03T06:44:15.584Z,2.80
2019-02-03T06:46:52.327Z,2.90
2019-02-03T06:49:25.652Z,3.00
2019-02-03T06:51:52.976Z,3.00
2019-02-03T06:54:39.852Z,2.80
2019-02-03T06:57:07.187Z,2.80
2019-02-03T06:59:34.455Z,2.80
2019-02-03T07:02:02.100Z,2.90
2019-02-03T07:04:29.431Z,2.80
2019-02-03T07:06:56.768Z,2.90
2019-02-03T07:09:24.008Z,2.90
2019-02-03T07:11:51.332Z,2.90
2019-02-03T07:14:18.787Z,2.90
2019-02-03T07:16:46.158Z,2.90
2019-02-03T07:19:13.929Z,2.90
2019-02-03T07:21:41.332Z,3.00
2019-02-03T07:24:08.672Z,2.90
2019-02-03T07:26:35.923Z,3.00
2019-02-03T07:29:03.930Z,2.90
2019-02-03T07:31:31.264Z,2.70
2019-02-03T07:33:58.888Z,2.80
2019-02-03T07:36:26.135Z,2.90
2019-02-03T07:38:53.508Z,2.80
2019-02-03T07:41:20.742Z,2.90
2019-02-03T07:43:47.996Z,2.90
2019-02-03T07:46:15.258Z,2.90
2019-02-03T07:48:42.659Z,3.00
2019-02-03T07:51:10.107Z,2.90
2019-02-03T07:53:37.462Z,3.10
2019-02-03T07:56:04.805Z,3.00
2019-02-03T07:58:32.030Z,3.10
2019-02-03T08:00:59.498Z,3.10
2019-02-03T08:03:26.821Z,3.00
2019-02-03T08:05:54.179Z,3.00
2019-02-03T08:08:21.811Z,3.00
2019-02-03T08:10:49.061Z,3.00
2019-02-03T08:13:16.523Z,3.10
2019-02-03T08:15:43.783Z,3.10
2019-02-03T08:18:11.007Z,2.90
2019-02-03T08:20:38.258Z,2.90
2019-02-03T08:23:05.578Z,3.00
2019-02-03T08:25:32.987Z,3.10
2019-02-03T08:28:00.780Z,3.00
2019-02-03T08:30:28.480Z,3.20
2019-02-03T08:32:55.897Z,3.30
2019-02-03T08:35:23.246Z,3.20
2019-02-03T08:37:50.486Z,3.30
2019-02-03T08:40:19.214Z,3.40
2019-02-03T08:42:46.640Z,3.40
2019-02-03T08:45:15.759Z,3.40
2019-02-03T08:47:45.348Z,3.40
2019-02-03T08:50:14.858Z,3.50
2019-02-03T08:52:51.282Z,3.40
2019-02-03T08:55:17.997Z,3.50
2019-02-03T08:57:45.418Z,3.40
2019-02-03T09:00:18.112Z,3.50
2019-02-03T09:02:45.443Z,3.50
2019-02-03T09:05:13.237Z,3.50
2019-02-03T09:07:40.690Z,3.60
2019-02-03T09:10:10.618Z,3.50
2019-02-03T09:12:37.959Z,3.50
2019-02-03T09:15:06.731Z,3.50
2019-02-03T09:17:34.006Z,3.50
2019-02-03T09:20:01.349Z,3.60
2019-02-03T09:22:28.625Z,3.80
2019-02-03T09:24:56.287Z,3.80
2019-02-03T09:27:23.556Z,3.70
2019-02-03T09:29:51.545Z,3.70
2019-02-03T09:32:18.908Z,3.90
2019-02-03T09:34:46.186Z,4.10
2019-02-03T09:37:13.529Z,3.90
2019-02-03T09:39:40.928Z,4.10
2019-02-03T09:42:08.256Z,4.10
2019-02-03T09:44:35.499Z,4.20
2019-02-03T09:47:03.194Z,4.10
2019-02-03T09:49:30.622Z,4.00
2019-02-03T09:51:57.857Z,3.90
2019-02-03T09:54:25.102Z,4.00
2019-02-03T09:56:52.771Z,4.00
2019-02-03T09:59:20.044Z,4.10
2019-02-03T10:01:47.420Z,4.20
2019-02-03T10:04:14.728Z,4.20
2019-02-03T10:06:42.072Z,4.20
2019-02-03T10:09:09.582Z,4.20
2019-02-03T10:11:36.932Z,4.20
2019-02-03T10:14:04.722Z,4.20
2019-02-03T10:16:32.157Z,4.10
2019-02-03T10:18:59.537Z,4.30
2019-02-03T10:21:26.857Z,4.20
2019-02-03T10:23:54.295Z,4.30
2019-02-03T10:26:21.547Z,4.30
2019-02-03T10:28:49.588Z,4.40
2019-02-03T10:31:16.943Z,4.50
2019-02-03T10:33:44.290Z,4.60
2019-02-03T10:36:11.665Z,4.60
2019-02-03T10:38:39.016Z,4.80
2019-02-03T10:41:06.360Z,5.00
2019-02-03T10:43:33.756Z,5.10
2019-02-03T10:46:01.518Z,5.20
2019-02-03T10:48:29.941Z,5.20
2019-02-03T10:50:57.295Z,5.10
2019-02-03T10:53:24.670Z,5.00
2019-02-03T10:55:51.935Z,4.90
2019-02-03T10:58:19.201Z,4.80
2019-02-03T11:00:46.659Z,4.90
2019-02-03T11:03:28.441Z,4.70
2019-02-03T11:05:59.313Z,4.70
2019-02-03T11:08:25.863Z,4.60
2019-02-03T11:10:53.229Z,4.70
2019-02-03T11:13:20.968Z,4.70
2019-02-03T11:15:48.726Z,4.70
2019-02-03T11:18:16.460Z,4.80
2019-02-03T11:20:43.976Z,4.80
2019-02-03T11:23:11.337Z,4.70
2019-02-03T11:25:38.703Z,5.00
2019-02-03T11:28:06.282Z,5.00
2019-02-03T11:30:33.660Z,5.00
2019-02-03T11:33:06.446Z,4.90
2019-02-03T11:35:30.632Z,5.00
2019-02-03T11:38:05.113Z,4.90
2019-02-03T11:40:32.888Z,4.80
2019-02-03T11:43:00.293Z,4.70
2019-02-03T11:45:30.166Z,4.90
2019-02-03T11:47:57.711Z,5.00
2019-02-03T11:50:28.053Z,5.00
2019-02-03T11:52:55.292Z,4.90
2019-02-03T11:55:22.623Z,4.70
2019-02-03T11:57:49.988Z,4.60
2019-02-03T12:00:20.031Z,4.50
2019-02-03T12:02:56.751Z,4.60
2019-02-03T12:05:24.095Z,4.60
2019-02-03T12:07:51.352Z,4.70
2019-02-03T12:10:21.463Z,4.60
2019-02-03T12:12:48.819Z,4.80
2019-02-03T12:15:17.175Z,4.70
2019-02-03T12:17:44.435Z,4.80
2019-02-03T12:20:12.258Z,4.90
2019-02-03T12:22:39.656Z,4.90
2019-02-03T12:25:08.435Z,4.80
2019-02-03T12:27:35.717Z,4.80
2019-02-03T12:30:06.640Z,4.70
2019-02-03T12:32:33.888Z,4.70
2019-02-03T12:35:01.126Z,4.70
2019-02-03T12:37:28.460Z,4.70
2019-02-03T12:39:55.727Z,4.80
2019-02-03T12:42:22.981Z,4.90
2019-02-03T12:44:50.379Z,5.00
2019-02-03T12:47:19.281Z,5.10
2019-02-03T12:49:46.771Z,5.00
2019-02-03T12:52:14.060Z,4.90
2019-02-03T12:54:41.323Z,5.00
2019-02-03T12:57:08.588Z,5.00
2019-02-03T12:59:35.849Z,4.80
2019-02-03T13:02:03.321Z,4.80
2019-02-03T13:04:30.589Z,4.70
2019-02-03T13:06:57.944Z,4.70
2019-02-03T13:09:25.197Z,4.70
2019-02-03T13:11:52.549Z,4.60
2019-02-03T13:14:19.812Z,4.50
2019-02-03T13:16:47.158Z,4.60
2019-02-03T13:19:15.710Z,4.50
2019-02-03T13:21:43.486Z,4.60
2019-02-03T13:24:10.882Z,4.50
2019-02-03T13:26:38.146Z,4.60
2019-02-03T13:29:05.511Z,4.40
2019-02-03T13:31:32.769Z,4.60
2019-02-03T13:34:00.160Z,4.50
2019-02-03T13:36:27.419Z,4.50
2019-02-03T13:38:54.678Z,4.60
2019-02-03T13:41:22.060Z,4.70
2019-02-03T13:43:49.330Z,4.90
2019-02-03T13:46:16.655Z,4.90
2019-02-03T13:48:44.789Z,4.90
2019-02-03T13:51:12.187Z,4.90
2019-02-03T13:53:39.475Z,4.90
2019-02-03T13:56:06.823Z,4.90
2019-02-03T13:58:37.095Z,4.80
2019-02-03T14:01:03.451Z,4.80
2019-02-03T14:03:30.791Z,4.90
2019-02-03T14:05:58.026Z,4.80
2019-02-03T14:08:25.797Z,4.90
2019-02-03T14:10:53.243Z,4.80
2019-02-03T14:13:20.619Z,4.80
2019-02-03T14:15:47.960Z,4.80
2019-02-03T14:18:15.328Z,4.90
2019-02-03T14:20:42.582Z,4.80
2019-02-03T14:23:10.447Z,4.80
2019-02-03T14:25:37.691Z,4.80
2019-02-03T14:28:05.186Z,4.90
2019-02-03T14:30:51.373Z,4.80
2019-02-03T14:33:18.886Z,4.80
2019-02-03T14:35:46.592Z,4.90
2019-02-03T14:38:13.946Z,4.60
2019-02-03T14:40:41.299Z,4.60
2019-02-03T14:43:08.632Z,4.70
2019-02-03T14:45:35.972Z,4.70
2019-02-03T14:48:03.560Z,4.60
2019-02-03T14:50:30.856Z,4.70
2019-02-03T14:52:59.351Z,4.70
2019-02-03T14:55:28.989Z,4.60
2019-02-03T14:57:56.246Z,4.70
2019-02-03T15:00:34.899Z,4.60
2019-02-03T15:03:05.792Z,4.60
2019-02-03T15:05:33.112Z,4.60
2019-02-03T15:08:00.423Z,4.60
2019-02-03T15:10:30.262Z,4.70
2019-02-03T15:12:57.099Z,4.60
2019-02-03T15:15:24.384Z,4.70
2019-02-03T15:17:51.781Z,4.60
2019-02-03T15:20:20.292Z,4.60
2019-02-03T15:22:47.552Z,4.60
2019-02-03T15:25:14.891Z,4.60
2019-02-03T15:27:42.159Z,4.40
2019-02-03T15:30:19.722Z,4.50
2019-02-03T15:32:46.770Z,4.70
2019-02-03T15:35:14.342Z,4.60
2019-02-03T15:37:41.602Z,4.50
2019-02-03T15:40:10.151Z,4.40
2019-02-03T15:42:37.500Z,4.50
2019-02-03T15:45:06.389Z,4.50
2019-02-03T15:47:34.067Z,4.40
2019-02-03T15:50:01.321Z,4.40
2019-02-03T15:52:28.580Z,4.40
2019-02-03T15:54:55.868Z,4.30
2019-02-03T15:57:23.108Z,4.20
2019-02-03T15:59:50.425Z,4.20
2019-02-03T16:02:17.791Z,4.20
2019-02-03T16:04:45.355Z,4.30
2019-02-03T16:07:12.700Z,4.20
2019-02-03T16:09:40.049Z,4.20
2019-02-03T16:12:07.407Z,4.40
2019-02-03T16:14:34.818Z,4.30
2019-02-03T16:17:02.143Z,4.20
2019-02-03T16:19:29.822Z,4.20
2019-02-03T16:21:57.127Z,4.10
2019-02-03T16:24:24.386Z,4.20
2019-02-03T16:26:51.718Z,4.10
2019-02-03T16:29:18.967Z,4.20
2019-02-03T16:31:46.223Z,4.20
2019-02-03T16:34:13.474Z,4.10
2019-02-03T16:36:41.854Z,4.10
2019-02-03T16:39:09.289Z,4.00
2019-02-03T16:41:36.567Z,4.10
2019-02-03T16:44:04.451Z,4.10
2019-02-03T16:46:31.676Z,4.20
2019-02-03T16:49:00.781Z,4.20
2019-02-03T16:51:28.251Z,4.10
2019-02-03T16:53:55.631Z,4.20
2019-02-03T16:56:22.951Z,4.20
2019-02-03T16:58:50.299Z,4.00
2019-02-03T17:01:17.545Z,4.00
2019-02-03T17:03:44.885Z,4.10
2019-02-03T17:06:12.212Z,4.00
2019-02-03T17:08:39.481Z,3.90
2019-02-03T17:11:06.955Z,4.00
2019-02-03T17:13:34.307Z,3.90
2019-02-03T17:16:01.674Z,3.90
2019-02-03T17:18:28.943Z,3.90
2019-02-03T17:21:01.945Z,3.90
2019-02-03T17:23:25.510Z,4.00
2019-02-03T17:25:59.672Z,3.90
2019-02-03T17:28:27.062Z,3.90
2019-02-03T17:30:54.316Z,3.80
2019-02-03T17:33:21.656Z,3.90
2019-02-03T17:35:54.428Z,3.90
2019-02-03T17:38:18.493Z,3.90
2019-02-03T17:40:46.216Z,3.90
2019-02-03T17:43:29.329Z,3.80
2019-02-03T17:45:56.758Z,3.80
2019-02-03T17:48:24.243Z,3.90
2019-02-03T17:50:51.838Z,3.80
2019-02-03T17:53:19.743Z,3.60
2019-02-03T17:55:47.127Z,3.70
2019-02-03T17:58:14.837Z,3.80
2019-02-03T18:01:03.225Z,3.80
2019-02-03T18:03:33.293Z,3.80
2019-02-03T18:06:00.759Z,3.80
2019-02-03T18:09:36.727Z,3.80
2019-02-03T18:12:19.430Z,3.80
2019-02-03T18:14:46.766Z,3.70
2019-02-03T18:17:14.088Z,3.70
2019-02-03T18:19:41.752Z,3.70
2019-02-03T18:22:09.381Z,3.60
2019-02-03T18:24:46.143Z,3.70
2019-02-03T18:27:27.473Z,3.90
2019-02-03T18:29:55.836Z,3.80
2019-02-03T18:32:23.148Z,3.80
2019-02-03T18:38:18.576Z,3.70
2019-02-03T18:40:45.927Z,3.80
2019-02-03T18:43:13.155Z,3.70
2019-02-03T18:45:40.452Z,3.70
2019-02-03T18:48:07.684Z,3.70
2019-02-03T18:50:36.693Z,3.60
2019-02-03T18:53:30.475Z,3.60
2019-02-03T18:56:12.432Z,3.60
2019-02-03T18:59:08.152Z,3.80
2019-02-03T19:02:02.468Z,3.70
2019-02-03T19:04:33.862Z,3.70
2019-02-03T19:07:25.344Z,3.60
2019-02-03T19:09:56.428Z,3.60
2019-02-03T19:12:24.193Z,3.50
2019-02-03T19:14:56.085Z,3.50
2019-02-03T19:18:22.537Z,3.60
2019-02-03T19:20:50.717Z,3.60
2019-02-03T19:27:24.911Z,3.50
2019-02-03T19:29:52.721Z,3.60
2019-02-03T19:32:27.320Z,3.50
2019-02-03T19:34:59.656Z,3.60
2019-02-03T19:37:30.637Z,3.60
2019-02-03T19:40:00.667Z,3.60
2019-02-03T19:42:56.505Z,3.50
2019-02-03T19:45:25.314Z,3.50
2019-02-03T19:47:57.642Z,3.60
2019-02-03T19:50:27.808Z,3.50
2019-02-03T19:52:55.531Z,3.50
2019-02-03T19:55:25.859Z,3.50
2019-02-03T19:57:53.144Z,3.60
2019-02-03T20:00:23.409Z,3.60
2019-02-03T20:02:50.963Z,3.70
2019-02-03T20:05:18.360Z,3.70
2019-02-03T20:07:46.655Z,3.60
2019-02-03T20:10:16.657Z,3.70
2019-02-03T20:12:44.017Z,3.50
2019-02-03T20:15:12.938Z,3.50
2019-02-03T20:17:40.295Z,3.50
2019-02-03T20:20:10.961Z,3.50
2019-02-03T20:22:38.376Z,3.50
2019-02-03T20:25:07.424Z,3.60
2019-02-03T20:27:34.647Z,3.50
2019-02-03T20:30:02.391Z,3.60
2019-02-03T20:32:30.204Z,3.60
2019-02-03T20:34:57.958Z,3.70
2019-02-03T20:37:26.223Z,3.60
2019-02-03T20:40:34.383Z,3.60
2019-02-03T20:43:01.732Z,3.60
2019-02-03T20:49:22.603Z,3.50
2019-02-03T20:52:42.129Z,3.50
2019-02-03T20:55:10.028Z,3.40
2019-02-03T20:57:37.573Z,3.30
2019-02-03T21:00:08.280Z,3.40
2019-02-03T21:02:35.559Z,3.40
2019-02-03T21:05:03.883Z,3.30
2019-02-03T21:07:31.379Z,3.40
2019-02-03T21:09:59.023Z,3.20
2019-02-03T21:12:26.834Z,3.30
2019-02-03T21:14:54.325Z,3.20
2019-02-03T21:17:22.133Z,3.30
2019-02-03T21:19:49.515Z,3.20
2019-02-03T21:22:17.970Z,3.10
2019-02-03T21:24:45.221Z,3.20
2019-02-03T21:27:13.017Z,3.10
2019-02-03T21:29:40.362Z,3.00
2019-02-03T21:32:30.165Z,2.90
2019-02-03T21:34:57.952Z,2.90
2019-02-03T21:37:25.555Z,2.90
2019-02-03T21:39:53.099Z,2.80
2019-02-03T21:42:20.397Z,2.80
2019-02-03T21:44:47.781Z,2.80
2019-02-03T21:47:15.164Z,2.70
2019-02-03T21:49:42.508Z,2.80
2019-02-03T21:52:09.767Z,2.80
2019-02-03T21:54:37.111Z,2.90
2019-02-03T21:57:05.508Z,2.80
2019-02-03T21:59:32.872Z,2.70
2019-02-03T22:02:00.236Z,2.80
2019-02-03T22:04:27.557Z,2.70
2019-02-03T22:06:54.854Z,2.70
2019-02-03T22:09:22.220Z,2.60
2019-02-03T22:11:50.212Z,2.60
2019-02-03T22:14:17.717Z,2.60
2019-02-03T22:16:45.045Z,2.60
2019-02-03T22:19:12.336Z,2.60
2019-02-03T22:21:39.675Z,2.60
2019-02-03T22:24:07.207Z,2.60
2019-02-03T22:26:34.745Z,2.60
2019-02-03T22:29:03.292Z,2.40
2019-02-03T22:31:30.823Z,2.40
2019-02-03T22:33:58.081Z,2.30
2019-02-03T22:36:25.340Z,2.30
2019-02-03T22:38:52.615Z,2.40
2019-02-03T22:41:19.838Z,2.40
2019-02-03T22:43:47.908Z,2.30
2019-02-03T22:46:15.173Z,2.40
2019-02-03T22:48:42.414Z,2.40
2019-02-03T22:51:09.842Z,2.40
2019-02-03T22:53:37.184Z,2.30
2019-02-03T22:56:04.448Z,2.30
2019-02-03T22:58:31.823Z,2.30
2019-02-03T23:01:12.570Z,2.30
2019-02-03T23:03:51.386Z,2.30
2019-02-03T23:06:18.660Z,2.30
2019-02-03T23:08:46.050Z,2.30
2019-02-03T23:11:13.702Z,2.40
2019-02-03T23:13:40.972Z,2.30
2019-02-03T23:16:18.000Z,2.20
2019-02-03T23:18:37.593Z,2.30
2019-02-03T23:21:04.852Z,2.20
2019-02-03T23:23:32.103Z,2.30
2019-02-03T23:25:59.474Z,2.20
2019-02-03T23:28:26.803Z,2.10
2019-02-03T23:30:54.063Z,2.10
2019-02-03T23:33:21.321Z,2.20
2019-02-03T23:35:48.669Z,2.10
2019-02-03T23:38:15.898Z,2.10
2019-02-03T23:40:43.144Z,2.00
2019-02-03T23:43:10.413Z,2.00
2019-02-03T23:45:37.743Z,2.00
2019-02-03T23:48:05.781Z,2.10
2019-02-03T23:50:33.127Z,2.00
2019-02-03T23:53:00.466Z,1.90
2019-02-03T23:55:27.820Z,1.90
2019-02-03T23:57:55.159Z,1.80
